San Francisco, California
Current Conditions -  °F | °C
As of 7:56 AM on Wednesday 28 Jan 2015 (Local Time) from KSFO Reporting Station
Few Clouds Few Clouds  
Wind Chill: 52°   Ceiling: Unl
Heat Index: 52°   Visibility: 10mi
Dew Point: 51°   Wind: 3mph
Humidity: 97%   Direction: 180°S
Pressure: 30.26"   Gusts: NA
Location:  37.78°N, 122.42°W
Report Text: KSFO 281556Z 18003KT 10SM FEW200 11/11 A3026 RMK AO2 SLP246 T01110106
Loading
Personal Weather Stations






























Interactive Weather Map New forecast layout! Learn more

10-Day Weather Forecast

Advertisements
Track Severe Weather on mobile